Time;durP1;ratioP1;P1;durP2;ratioP2;P2;SDS_P1;SDS_P2;PMS_P1;PMS_P2;Temp;Humidity;BMP_temperature;BMP_pressure;BME280_temperature;BME280_humidity;BME280_pressure;Samples;Min_cycle;Max_cycle;Signal;HPM_P1;HPM_P2
2023/08/09 00:00:42;;;;;;;7.47;4.97;;;;;;;15.37;100.00;101163.47;5043788;28;20103;-70
2023/08/09 00:03:08;;;;;;;7.93;5.38;;;;;;;15.29;100.00;101174.78;5042110;28;20040;-70
2023/08/09 00:05:34;;;;;;;9.40;5.88;;;;;;;15.26;100.00;101169.69;5047475;28;20049;-70
2023/08/09 00:07:59;;;;;;;11.82;6.38;;;;;;;15.23;100.00;101175.28;5047189;28;20049;-70
2023/08/09 00:10:25;;;;;;;8.65;5.40;;;;;;;15.18;100.00;101174.78;5047389;28;20045;-70
2023/08/09 00:12:51;;;;;;;10.05;6.72;;;;;;;15.07;100.00;101180.13;5049004;28;20048;-70
2023/08/09 00:15:18;;;;;;;8.82;6.78;;;;;;;15.11;100.00;101183.41;5047432;28;20029;-70
2023/08/09 00:17:44;;;;;;;9.10;6.82;;;;;;;15.04;100.00;101177.66;5044431;28;20029;-70
2023/08/09 00:20:13;;;;;;;8.27;6.57;;;;;;;15.17;100.00;101174.91;5050653;28;20044;-70
2023/08/09 00:22:40;;;;;;;8.23;7.03;;;;;;;15.23;100.00;101174.44;5050222;28;20037;-70
2023/08/09 00:25:09;;;;;;;9.15;6.43;;;;;;;15.16;100.00;101173.16;5044132;28;20041;-69
2023/08/09 00:27:35;;;;;;;11.27;7.72;;;;;;;15.16;100.00;101171.38;5063538;28;20053;-70
2023/08/09 00:30:00;;;;;;;7.78;6.25;;;;;;;15.23;100.00;101172.59;5049385;28;20488;-70
2023/08/09 00:32:26;;;;;;;10.23;7.00;;;;;;;15.29;100.00;101182.00;5044596;28;20041;-69
2023/08/09 00:34:51;;;;;;;10.95;8.45;;;;;;;15.25;100.00;101178.69;5049075;28;20768;-70
2023/08/09 00:37:18;;;;;;;10.98;7.50;;;;;;;15.26;100.00;101179.53;5081093;27;20037;-70
2023/08/09 00:39:44;;;;;;;10.95;7.03;;;;;;;15.22;100.00;101180.78;5047579;28;20049;-70
2023/08/09 00:42:09;;;;;;;11.60;8.48;;;;;;;15.17;100.00;101188.34;5048726;28;20111;-70
2023/08/09 00:44:35;;;;;;;10.98;7.30;;;;;;;15.12;100.00;101177.09;5048040;28;20040;-70
2023/08/09 00:47:00;;;;;;;11.50;8.57;;;;;;;15.02;100.00;101183.16;5048587;28;20107;-70
2023/08/09 00:49:27;;;;;;;11.48;8.25;;;;;;;14.98;100.00;101192.44;5048935;28;20057;-70
2023/08/09 00:51:53;;;;;;;11.23;8.07;;;;;;;14.90;100.00;101189.47;5049106;28;20502;-70
2023/08/09 00:54:20;;;;;;;14.57;8.45;;;;;;;14.84;100.00;101195.28;5049083;28;20113;-70
2023/08/09 00:56:46;;;;;;;11.80;8.63;;;;;;;14.76;100.00;101197.72;5052369;28;20033;-70
2023/08/09 00:59:12;;;;;;;15.05;9.10;;;;;;;14.74;100.00;101197.81;5046998;28;20924;-70
2023/08/09 01:01:39;;;;;;;11.95;8.95;;;;;;;14.69;100.00;101201.81;5048124;28;20040;-70
2023/08/09 01:04:05;;;;;;;12.95;9.27;;;;;;;14.57;100.00;101203.59;5047380;28;20930;-70
2023/08/09 01:06:41;;;;;;;11.98;9.45;;;;;;;14.55;100.00;101204.69;5044311;28;20103;-70
2023/08/09 01:09:29;;;;;;;14.82;9.27;;;;;;;14.60;100.00;101198.00;5043643;28;20044;-70
2023/08/09 01:12:00;;;;;;;11.77;8.93;;;;;;;14.57;100.00;101205.44;5056703;28;20030;-70
2023/08/09 01:14:28;;;;;;;11.35;8.52;;;;;;;14.59;100.00;101203.47;5047993;28;20036;-70
2023/08/09 01:16:55;;;;;;;13.77;8.68;;;;;;;14.53;100.00;101204.81;5038734;28;20115;-70
2023/08/09 01:19:51;;;;;;;13.13;9.30;;;;;;;14.42;100.00;101205.56;5048205;28;20029;-70
2023/08/09 01:22:21;;;;;;;9.25;7.28;;;;;;;14.37;100.00;101213.09;5048077;28;20037;-70
2023/08/09 01:24:48;;;;;;;11.90;8.32;;;;;;;14.40;100.00;101206.63;5053047;28;20033;-70
2023/08/09 01:27:14;;;;;;;16.25;9.15;;;;;;;14.31;100.00;101205.50;5047360;28;20079;-70
2023/08/09 01:29:40;;;;;;;17.23;9.75;;;;;;;14.35;100.00;101203.44;5048028;28;20067;-70
2023/08/09 01:32:06;;;;;;;16.02;10.02;;;;;;;14.27;100.00;101211.19;5043834;28;20033;-70
2023/08/09 01:34:32;;;;;;;9.52;8.13;;;;;;;14.25;100.00;101208.59;5046377;28;20040;-70
2023/08/09 01:37:10;;;;;;;11.77;8.48;;;;;;;14.27;100.00;101211.19;5055682;28;20036;-70
2023/08/09 01:39:38;;;;;;;12.00;8.45;;;;;;;14.26;100.00;101204.97;5048612;28;20040;-70
2023/08/09 01:42:05;;;;;;;11.73;7.90;;;;;;;14.27;100.00;101211.19;5047890;28;20045;-70
2023/08/09 01:44:31;;;;;;;10.98;8.82;;;;;;;14.20;100.00;101218.81;5048718;28;20033;-70
2023/08/09 01:46:57;;;;;;;12.90;9.73;;;;;;;14.14;100.00;101214.75;5047143;28;20171;-70
2023/08/09 01:49:23;;;;;;;15.20;9.70;;;;;;;14.08;100.00;101222.41;5037086;28;20037;-70
2023/08/09 01:51:51;;;;;;;14.00;9.00;;;;;;;14.03;100.00;101225.41;5047714;28;20055;-70
2023/08/09 01:54:17;;;;;;;14.15;9.60;;;;;;;14.15;100.00;101224.50;5045923;28;20037;-71
2023/08/09 01:56:43;;;;;;;14.18;9.90;;;;;;;14.20;100.00;101234.91;5061055;28;21155;-70
2023/08/09 01:59:09;;;;;;;11.07;8.77;;;;;;;14.36;100.00;101232.00;5047690;28;20151;-70
2023/08/09 02:01:36;;;;;;;12.35;9.02;;;;;;;14.48;100.00;101225.75;5079261;28;20052;-70
2023/08/09 02:04:05;;;;;;;12.00;9.48;;;;;;;14.55;100.00;101235.03;5046689;28;20042;-70
2023/08/09 02:06:32;;;;;;;15.18;9.98;;;;;;;14.64;100.00;101233.53;5047618;28;20051;-70
2023/08/09 02:08:58;;;;;;;21.02;14.70;;;;;;;14.59;100.00;101235.69;5037762;28;20033;-70
2023/08/09 02:11:24;;;;;;;18.48;13.23;;;;;;;14.63;100.00;101238.03;5047560;28;20141;-70
2023/08/09 02:13:51;;;;;;;27.83;15.60;;;;;;;14.70;100.00;101241.09;5054648;28;20029;-70
2023/08/09 02:16:18;;;;;;;22.77;15.65;;;;;;;14.72;100.00;101242.72;5040597;28;20159;-70
2023/08/09 02:18:44;;;;;;;26.55;16.60;;;;;;;14.78;100.00;101244.09;5048188;28;20037;-70
2023/08/09 02:21:10;;;;;;;40.45;21.48;;;;;;;14.74;100.00;101248.81;5048734;28;20076;-70
2023/08/09 02:23:37;;;;;;;39.13;22.02;;;;;;;14.81;100.00;101251.94;5047718;28;20043;-70
2023/08/09 02:26:05;;;;;;;37.05;21.92;;;;;;;14.85;100.00;101255.22;5046942;28;20106;-70
2023/08/09 02:28:31;;;;;;;41.15;23.63;;;;;;;14.89;100.00;101248.66;5046538;28;20049;-70
2023/08/09 02:30:57;;;;;;;43.70;26.15;;;;;;;14.91;100.00;101252.97;5046590;28;20972;-70
2023/08/09 02:33:22;;;;;;;46.60;26.33;;;;;;;14.91;100.00;101252.97;5046749;28;20037;-70
2023/08/09 02:35:56;;;;;;;35.88;22.90;;;;;;;14.91;100.00;101255.66;5044697;28;20048;-70
2023/08/09 02:38:24;;;;;;;51.15;28.05;;;;;;;14.97;100.00;101265.91;5046835;28;20076;-70
2023/08/09 02:40:50;;;;;;;48.72;28.42;;;;;;;14.95;100.00;101259.78;5045673;28;20037;-70
2023/08/09 02:43:19;;;;;;;59.10;29.83;;;;;;;14.90;100.00;101267.34;5043199;28;20029;-70
2023/08/09 02:45:46;;;;;;;48.25;27.60;;;;;;;14.86;100.00;101263.19;5041654;28;20140;-70
2023/08/09 02:48:12;;;;;;;57.17;29.48;;;;;;;14.86;100.00;101257.81;5046807;28;20037;-70
2023/08/09 02:50:38;;;;;;;49.70;27.95;;;;;;;14.84;100.00;101264.25;5046668;28;20048;-70
2023/08/09 02:53:05;;;;;;;58.92;28.70;;;;;;;14.81;100.00;101264.47;5045582;28;20037;-70
2023/08/09 02:55:32;;;;;;;53.47;30.20;;;;;;;14.85;100.00;101265.97;5036855;28;20498;-70
2023/08/09 02:57:59;;;;;;;48.78;29.15;;;;;;;14.91;100.00;101265.50;5047056;28;20036;-69
2023/08/09 03:00:25;;;;;;;52.28;29.70;;;;;;;14.80;100.00;101270.81;5047046;28;20025;-70
2023/08/09 03:02:51;;;;;;;53.35;28.83;;;;;;;14.85;100.00;101274.88;5049225;28;20033;-70
2023/08/09 03:05:16;;;;;;;46.88;28.33;;;;;;;14.88;100.00;101271.13;5050196;28;20048;-70
2023/08/09 03:07:42;;;;;;;48.55;27.42;;;;;;;14.87;100.00;101269.41;5050982;28;20960;-70
2023/08/09 03:10:09;;;;;;;49.65;28.25;;;;;;;14.95;100.00;101269.69;5049961;28;20576;-70
2023/08/09 03:12:35;;;;;;;52.92;29.10;;;;;;;14.70;100.00;101271.50;5046414;28;20029;-70
2023/08/09 03:15:01;;;;;;;55.83;29.50;;;;;;;14.82;100.00;101276.94;5051352;28;20029;-70
2023/08/09 03:17:28;;;;;;;58.05;29.33;;;;;;;14.86;100.00;101289.16;5059523;28;20041;-70
2023/08/09 03:19:54;;;;;;;43.63;25.88;;;;;;;14.93;100.00;101283.22;5049471;28;20063;-70
2023/08/09 03:22:20;;;;;;;54.28;29.27;;;;;;;14.74;100.00;101289.09;5034086;28;20118;-70
2023/08/09 03:24:45;;;;;;;50.25;27.25;;;;;;;14.84;100.00;101293.78;5050638;28;20510;-72
2023/08/09 03:27:11;;;;;;;48.60;26.88;;;;;;;14.90;100.00;101290.66;5050055;28;20134;-70
2023/08/09 03:29:37;;;;;;;47.85;28.35;;;;;;;14.92;100.00;101288.72;5063165;28;20153;-70
2023/08/09 03:32:03;;;;;;;49.85;28.98;;;;;;;14.99;100.00;101289.97;5065078;28;20033;-70
2023/08/09 03:34:29;;;;;;;48.40;26.92;;;;;;;14.97;100.00;101294.59;5051247;28;20049;-70
2023/08/09 03:36:55;;;;;;;51.88;27.27;;;;;;;14.99;100.00;101292.66;5050226;28;20033;-70
2023/08/09 03:39:21;;;;;;;53.15;28.52;;;;;;;14.89;100.00;101302.38;5041857;28;20048;-70
2023/08/09 03:41:47;;;;;;;58.10;29.27;;;;;;;14.96;100.00;101301.81;5043931;28;20033;-70
2023/08/09 03:44:13;;;;;;;48.90;26.40;;;;;;;15.02;100.00;101304.03;5050096;28;20033;-70
2023/08/09 03:46:39;;;;;;;48.47;26.95;;;;;;;14.99;100.00;101317.69;5050050;28;20088;-70
2023/08/09 03:49:05;;;;;;;47.63;25.50;;;;;;;15.09;100.00;101317.84;5050423;28;20040;-70
2023/08/09 03:51:31;;;;;;;46.47;26.08;;;;;;;14.97;100.00;101321.47;5049219;28;20037;-70
2023/08/09 03:53:57;;;;;;;53.28;27.55;;;;;;;14.87;100.00;101323.13;5050377;28;20048;-70
2023/08/09 03:56:22;;;;;;;50.33;26.63;;;;;;;14.85;100.00;101328.56;5044381;28;20566;-70
2023/08/09 03:58:48;;;;;;;50.85;28.40;;;;;;;14.84;100.00;101326.00;5043661;28;20481;-70
2023/08/09 04:01:13;;;;;;;58.33;29.77;;;;;;;14.92;100.00;101318.25;5047593;28;20032;-70
2023/08/09 04:03:39;;;;;;;42.53;25.20;;;;;;;14.94;100.00;101329.72;5082619;27;20043;-70
2023/08/09 04:06:05;;;;;;;53.03;27.75;;;;;;;15.03;100.00;101329.91;5076360;27;20569;-70
2023/08/09 04:08:31;;;;;;;54.65;27.08;;;;;;;14.95;100.00;101339.50;5053920;28;20040;-70
2023/08/09 04:10:59;;;;;;;73.70;31.55;;;;;;;14.97;100.00;101337.56;5042935;28;20171;-70
2023/08/09 04:13:25;;;;;;;64.85;29.23;;;;;;;15.09;100.00;101349.22;5053909;28;20121;-70
2023/08/09 04:15:52;;;;;;;61.90;29.55;;;;;;;14.99;100.00;101344.53;5050911;28;20029;-70
2023/08/09 04:18:17;;;;;;;55.72;28.90;;;;;;;15.12;100.00;101344.50;5051480;28;20048;-71
2023/08/09 04:20:45;;;;;;;63.17;29.85;;;;;;;15.11;100.00;101349.97;5049487;28;20124;-70
2023/08/09 04:23:10;;;;;;;67.45;30.98;;;;;;;15.05;100.00;101348.59;5056225;28;20029;-70
2023/08/09 04:25:36;;;;;;;61.78;29.90;;;;;;;15.06;100.00;101349.44;5053276;28;20045;-71
2023/08/09 04:28:02;;;;;;;57.78;28.17;;;;;;;15.13;100.00;101353.41;5049090;28;20117;-70
2023/08/09 04:30:28;;;;;;;80.78;30.45;;;;;;;15.01;100.00;101347.13;5043647;28;20033;-70
2023/08/09 04:32:53;;;;;;;56.63;26.80;;;;;;;15.04;100.00;101352.25;5045303;28;20076;-70
2023/08/09 04:35:19;;;;;;;83.40;30.25;;;;;;;15.13;100.00;101353.41;5051000;28;20857;-70
2023/08/09 04:37:45;;;;;;;61.97;27.38;;;;;;;15.00;100.00;101362.34;5054010;28;20044;-70
2023/08/09 04:40:11;;;;;;;57.67;27.33;;;;;;;15.13;100.00;101367.69;5063094;28;20057;-70
2023/08/09 04:42:41;;;;;;;81.30;30.13;;;;;;;15.16;100.00;101361.22;5050013;28;20033;-71
2023/08/09 04:45:08;;;;;;;75.43;27.95;;;;;;;15.10;100.00;101367.91;5048407;28;20140;-70
2023/08/09 04:47:34;;;;;;;78.05;27.98;;;;;;;15.17;100.00;101368.34;5048375;28;20025;-70
2023/08/09 04:50:01;;;;;;;70.57;29.73;;;;;;;15.16;100.00;101374.66;5047782;28;20665;-70
2023/08/09 04:52:26;;;;;;;63.88;25.88;;;;;;;15.07;100.00;101370.84;5049514;28;20033;-70
2023/08/09 04:54:52;;;;;;;51.80;23.92;;;;;;;15.14;100.00;101377.47;5050394;28;20041;-70
2023/08/09 04:57:17;;;;;;;55.63;24.05;;;;;;;15.08;100.00;101374.38;5046773;28;20870;-70
2023/08/09 04:59:43;;;;;;;53.85;24.75;;;;;;;14.99;100.00;101371.38;5051304;28;20029;-70
2023/08/09 05:02:08;;;;;;;57.72;24.65;;;;;;;15.14;100.00;101377.47;5048627;28;20709;-71
2023/08/09 05:04:34;;;;;;;47.20;21.77;;;;;;;15.01;100.00;101382.91;5047616;28;20123;-70
2023/08/09 05:07:00;;;;;;;53.38;23.67;;;;;;;15.06;100.00;101382.56;5052225;28;20044;-70
2023/08/09 05:09:27;;;;;;;43.28;20.60;;;;;;;15.15;100.00;101383.69;5047638;28;20037;-70
2023/08/09 05:11:52;;;;;;;57.90;24.50;;;;;;;15.23;100.00;101384.84;5050772;28;20041;-70
2023/08/09 05:14:19;;;;;;;49.38;23.05;;;;;;;15.28;100.00;101390.75;5051857;28;20067;-70
2023/08/09 05:16:45;;;;;;;55.58;24.90;;;;;;;15.40;100.00;101382.72;5047266;28;20545;-70
2023/08/09 05:19:10;;;;;;;50.05;23.80;;;;;;;15.42;100.00;101397.78;5052230;28;20032;-70
2023/08/09 05:21:36;;;;;;;53.95;24.08;;;;;;;15.43;100.00;101395.94;5049330;28;20087;-70
2023/08/09 05:24:01;;;;;;;69.38;27.15;;;;;;;15.34;100.00;101402.84;5050126;28;20140;-70
2023/08/09 05:26:27;;;;;;;53.15;23.83;;;;;;;15.32;100.00;101396.75;5051040;28;20957;-70
2023/08/09 05:28:52;;;;;;;69.45;24.20;;;;;;;15.43;100.00;101394.09;5049789;28;20691;-70
2023/08/09 05:31:17;;;;;;;87.85;27.65;;;;;;;15.39;100.00;101389.06;5050758;28;20077;-70
2023/08/09 05:33:43;;;;;;;47.75;22.42;;;;;;;15.50;100.00;101387.28;5050314;28;20033;-70
2023/08/09 05:36:09;;;;;;;44.22;20.60;;;;;;;15.51;100.00;101398.88;5049350;28;20150;-70
2023/08/09 05:38:34;;;;;;;47.20;21.65;;;;;;;15.54;100.00;101393.31;5050117;28;20044;-70
2023/08/09 05:41:00;;;;;;;32.72;19.52;;;;;;;15.72;100.00;101400.00;5063872;28;20029;-70
2023/08/09 05:43:25;;;;;;;50.92;22.73;;;;;;;15.59;100.00;101396.50;5046635;28;20044;-70
2023/08/09 05:45:50;;;;;;;38.50;20.10;;;;;;;15.72;100.00;101401.84;5046667;28;20037;-70
2023/08/09 05:48:16;;;;;;;54.53;21.65;;;;;;;15.70;100.00;101404.63;5047271;28;20036;-72
2023/08/09 05:50:41;;;;;;;75.82;25.42;;;;;;;15.76;100.00;101406.00;5046243;28;20048;-72
2023/08/09 05:53:09;;;;;;;59.47;24.25;;;;;;;15.82;100.00;101399.31;5042129;28;20072;-71
2023/08/09 05:55:35;;;;;;;68.03;26.95;;;;;;;15.84;100.00;101406.28;5043205;28;20906;-70
2023/08/09 05:58:01;;;;;;;56.72;25.80;;;;;;;15.90;100.00;101411.19;5060765;28;20974;-70
2023/08/09 06:00:27;;;;;;;60.40;27.08;;;;;;;15.90;100.00;101415.72;5077211;28;20072;-70
2023/08/09 06:02:52;;;;;;;53.00;25.95;;;;;;;15.97;100.00;101412.44;5043568;28;20073;-70
2023/08/09 06:05:27;;;;;;;53.83;26.10;;;;;;;16.10;100.00;101409.66;5044972;28;20053;-70
2023/08/09 06:07:55;;;;;;;51.28;25.52;;;;;;;16.30;100.00;101413.47;5042110;28;20136;-70
2023/08/09 06:10:21;;;;;;;49.55;25.73;;;;;;;16.39;100.00;101409.22;5047305;28;20049;-70
2023/08/09 06:12:47;;;;;;;55.00;27.20;;;;;;;16.58;100.00;101412.16;5046659;28;20059;-70
2023/08/09 06:15:13;;;;;;;56.50;27.38;;;;;;;16.61;100.00;101417.28;5047054;28;20033;-70
2023/08/09 06:17:38;;;;;;;62.10;29.00;;;;;;;16.56;100.00;101414.09;5047197;28;20516;-70
2023/08/09 06:20:05;;;;;;;59.47;29.17;;;;;;;16.62;100.00;101412.75;5047089;28;20033;-70
2023/08/09 06:22:31;;;;;;;59.97;28.23;;;;;;;16.77;100.00;101415.13;5048490;28;20037;-70
2023/08/09 06:24:57;;;;;;;63.95;29.85;;;;;;;16.85;100.00;101419.03;5047548;28;20037;-70
2023/08/09 06:27:22;;;;;;;68.38;30.55;;;;;;;16.88;100.00;101421.50;5057783;28;20037;-70
2023/08/09 06:29:48;;;;;;;69.57;31.98;;;;;;;17.01;100.00;101419.50;5046324;28;20033;-70
2023/08/09 06:32:14;;;;;;;65.25;31.38;;;;;;;17.17;100.00;101422.69;5053325;28;20044;-70
2023/08/09 06:34:39;;;;;;;53.20;29.08;;;;;;;17.19;100.00;101418.00;5046955;28;20037;-70
2023/08/09 06:37:05;;;;;;;70.18;33.40;;;;;;;16.96;100.00;101419.88;5048309;28;20854;-70
2023/08/09 06:39:30;;;;;;;68.82;33.35;;;;;;;16.90;100.00;101424.91;5052090;28;20885;-70
2023/08/09 06:41:56;;;;;;;65.65;31.52;;;;;;;16.96;100.00;101436.03;5045452;28;20037;-70
2023/08/09 06:44:21;;;;;;;70.63;32.08;;;;;;;17.22;100.00;101435.75;5042560;28;20044;-70
2023/08/09 06:46:47;;;;;;;64.80;30.08;;;;;;;17.12;100.00;101443.75;5047234;28;20033;-70
2023/08/09 06:49:12;;;;;;;56.83;28.35;;;;;;;17.24;100.00;101437.34;5051290;28;20474;-70
2023/08/09 06:51:38;;;;;;;59.58;28.58;;;;;;;17.08;100.00;101448.53;5050163;28;20067;-70
2023/08/09 06:54:04;;;;;;;49.38;27.13;;;;;;;17.11;100.00;101458.19;5065631;28;20348;-70
2023/08/09 06:56:29;;;;;;;49.28;26.02;;;;;;;16.94;100.00;101458.72;5051575;28;20084;-70
2023/08/09 06:58:55;;;;;;;53.67;27.75;;;;;;;17.21;100.00;101461.84;5052235;28;20144;-70
2023/08/09 07:01:20;;;;;;;53.45;27.55;;;;;;;17.40;100.00;101463.91;5050831;28;20134;-70
2023/08/09 07:03:46;;;;;;;51.13;26.05;;;;;;;17.57;100.00;101460.69;5048890;28;20825;-70
2023/08/09 07:06:12;;;;;;;45.58;25.75;;;;;;;17.90;100.00;101452.63;5046954;28;20065;-70
2023/08/09 07:08:38;;;;;;;42.45;25.73;;;;;;;17.91;100.00;101457.88;5047566;28;20553;-70
2023/08/09 07:11:04;;;;;;;43.63;24.40;;;;;;;18.00;100.00;101458.94;5047260;28;20073;-70
2023/08/09 07:13:29;;;;;;;43.72;24.17;;;;;;;18.20;100.00;101462.66;5050557;28;20033;-70
2023/08/09 07:15:55;;;;;;;47.97;25.85;;;;;;;18.02;100.00;101456.97;5045034;28;20828;-70
2023/08/09 07:18:21;;;;;;;46.30;26.20;;;;;;;18.18;100.00;101460.09;5044051;28;20073;-70
2023/08/09 07:20:46;;;;;;;49.13;26.52;;;;;;;18.04;100.00;101463.09;5048152;28;20037;-70
2023/08/09 07:23:12;;;;;;;47.40;26.65;;;;;;;18.06;100.00;101463.81;5050077;28;20152;-71
2023/08/09 07:25:38;;;;;;;44.85;26.48;;;;;;;18.04;100.00;101453.16;5047109;28;20042;-70
2023/08/09 07:28:05;;;;;;;43.85;24.98;;;;;;;18.09;100.00;101461.72;5043145;28;20871;-70
2023/08/09 07:30:30;;;;;;;42.72;25.13;;;;;;;18.38;100.00;101461.09;5049885;28;20510;-70
2023/08/09 07:32:56;;;;;;;43.58;23.95;;;;;;;18.68;100.00;101467.50;5049867;28;20041;-71
2023/08/09 07:35:21;;;;;;;42.35;23.42;;;;;;;18.56;100.00;101464.88;5076160;28;20033;-71
2023/08/09 07:37:47;;;;;;;37.35;22.17;;;;;;;18.59;100.00;101469.16;5043916;28;20071;-71
2023/08/09 07:40:14;;;;;;;36.75;22.17;;;;;;;18.91;100.00;101471.75;5049527;28;21102;-71
2023/08/09 07:42:40;;;;;;;37.85;22.27;;;;;;;18.82;100.00;101467.16;5046119;28;20132;-70
2023/08/09 07:45:06;;;;;;;36.53;20.75;;;;;;;18.83;100.00;101467.03;5046176;28;20153;-70
2023/08/09 07:47:32;;;;;;;35.28;20.02;;;;;;;18.89;100.00;101468.34;5077093;28;20574;-70
2023/08/09 07:50:00;;;;;;;28.10;17.33;;;;;;;19.02;100.00;101468.94;5047131;28;20041;-70
2023/08/09 07:52:26;;;;;;;26.73;15.77;;;;;;;19.38;100.00;101469.38;5050166;28;20986;-71
2023/08/09 07:54:51;;;;;;;24.17;15.10;;;;;;;19.65;100.00;101471.41;5049916;28;20385;-70
2023/08/09 07:57:17;;;;;;;24.83;15.75;;;;;;;19.47;100.00;101467.66;5049280;28;20994;-70
2023/08/09 07:59:42;;;;;;;20.13;14.60;;;;;;;19.46;100.00;101469.50;5041134;28;20037;-70
2023/08/09 08:02:09;;;;;;;28.95;16.42;;;;;;;19.60;100.00;101479.09;5041995;28;20041;-71
2023/08/09 08:04:35;;;;;;;29.55;16.02;;;;;;;19.66;100.00;101476.69;5043699;28;20049;-71
2023/08/09 08:07:00;;;;;;;23.92;15.57;;;;;;;19.87;100.00;101479.25;5049001;28;20040;-71
2023/08/09 08:09:26;;;;;;;21.65;13.93;;;;;;;19.94;100.00;101478.72;5039625;28;20033;-70
2023/08/09 08:11:52;;;;;;;20.85;13.60;;;;;;;19.79;100.00;101481.00;5049008;28;20136;-70
2023/08/09 08:14:18;;;;;;;25.55;15.65;;;;;;;19.59;100.00;101485.50;5048255;28;21009;-70
2023/08/09 08:16:43;;;;;;;19.52;12.95;;;;;;;19.66;100.00;101478.53;5043655;28;20045;-70
2023/08/09 08:19:09;;;;;;;22.33;12.98;;;;;;;19.59;100.00;101483.66;5050231;28;20033;-70
2023/08/09 08:21:35;;;;;;;21.77;14.85;;;;;;;19.64;100.00;101488.66;5044530;28;20044;-70
2023/08/09 08:24:00;;;;;;;21.45;14.25;;;;;;;19.73;100.00;101482.41;5030103;28;20033;-71
2023/08/09 08:26:26;;;;;;;22.05;14.18;;;;;;;19.55;100.00;101482.19;5049306;28;20044;-70
2023/08/09 08:28:52;;;;;;;20.45;13.55;;;;;;;19.81;100.00;101487.94;5049392;28;20120;-71
2023/08/09 08:31:19;;;;;;;21.23;13.50;;;;;;;19.91;100.00;101490.66;5048106;28;20041;-70
2023/08/09 08:33:49;;;;;;;19.73;13.95;;;;;;;20.05;100.00;101489.41;5044919;28;20161;-70
2023/08/09 08:36:18;;;;;;;19.83;12.45;;;;;;;20.14;100.00;101504.78;5048559;28;20048;-72
2023/08/09 08:38:43;;;;;;;21.02;12.43;;;;;;;20.11;100.00;101508.63;5048859;28;20025;-70
2023/08/09 08:41:10;;;;;;;21.33;14.13;;;;;;;20.02;100.00;101514.03;5041587;28;20033;-70
2023/08/09 08:43:37;;;;;;;23.27;14.68;;;;;;;19.99;100.00;101523.31;5049305;28;20029;-70
2023/08/09 08:46:04;;;;;;;18.58;13.05;;;;;;;20.08;100.00;101530.59;5037547;28;20041;-71
2023/08/09 08:48:32;;;;;;;18.60;12.90;;;;;;;20.43;100.00;101523.69;5077185;28;20046;-70
2023/08/09 08:50:59;;;;;;;19.20;12.60;;;;;;;20.75;100.00;101530.69;5049839;28;20041;-71
2023/08/09 08:53:26;;;;;;;20.17;13.43;;;;;;;20.91;100.00;101526.34;5049212;28;20040;-71
2023/08/09 08:55:52;;;;;;;17.83;13.05;;;;;;;21.69;100.00;101516.00;5048463;28;20044;-71
2023/08/09 08:58:17;;;;;;;16.75;12.95;;;;;;;22.05;100.00;101526.03;5048497;28;20047;-72
2023/08/09 09:00:43;;;;;;;18.77;13.20;;;;;;;21.95;100.00;101526.97;5042811;28;20042;-70
2023/08/09 09:03:08;;;;;;;24.33;13.10;;;;;;;21.59;100.00;101522.50;5050958;28;20510;-70
2023/08/09 09:05:34;;;;;;;18.75;12.88;;;;;;;21.13;100.00;101526.97;5057105;28;20115;-71
2023/08/09 09:08:00;;;;;;;12.85;10.27;;;;;;;22.01;100.00;101516.50;5040161;28;20477;-71
2023/08/09 09:10:26;;;;;;;18.13;10.85;;;;;;;22.23;100.00;101524.19;5049466;28;20041;-71
2023/08/09 09:12:53;;;;;;;14.82;10.68;;;;;;;22.37;100.00;101525.50;5050086;28;20043;-72
2023/08/09 09:15:19;;;;;;;14.43;10.45;;;;;;;22.21;100.00;101523.50;5049490;28;20036;-71
2023/08/09 09:17:45;;;;;;;16.02;11.57;;;;;;;21.65;100.00;101530.03;5049941;28;20932;-70
2023/08/09 09:20:18;;;;;;;17.00;10.82;;;;;;;21.39;100.00;101529.91;5043596;28;20036;-70
2023/08/09 09:22:44;;;;;;;15.10;9.65;;;;;;;20.95;100.00;101535.91;5043288;28;20044;-71
2023/08/09 09:25:12;;;;;;;16.17;9.63;;;;;;;21.32;100.00;101536.91;5044043;28;20037;-71
2023/08/09 09:27:42;;;;;;;9.75;8.07;;;;;;;21.84;100.00;101532.63;5048390;28;20083;-71
2023/08/09 09:30:12;;;;;;;9.32;8.18;;;;;;;22.14;98.59;101526.00;5047546;28;20045;-70
2023/08/09 09:32:56;;;;;;;15.48;7.93;;;;;;;22.31;98.13;101528.84;5043155;28;20041;-71
2023/08/09 09:35:25;;;;;;;12.95;7.32;;;;;;;22.68;95.49;101529.47;5044521;28;20043;-71
2023/08/09 09:37:51;;;;;;;9.27;6.70;;;;;;;23.13;94.28;101527.56;5043887;28;20092;-71
2023/08/09 09:40:36;;;;;;;11.77;6.47;;;;;;;23.31;88.00;101531.06;5047464;28;20043;-71
2023/08/09 09:43:04;;;;;;;9.38;7.30;;;;;;;23.32;86.88;101531.91;5044263;28;20029;-71
2023/08/09 09:45:30;;;;;;;12.07;7.00;;;;;;;23.27;87.15;101525.06;5056911;28;20092;-71
2023/08/09 09:48:00;;;;;;;9.82;7.15;;;;;;;23.41;86.65;101534.50;5046556;28;20041;-71
2023/08/09 09:50:27;;;;;;;10.77;7.07;;;;;;;23.39;87.24;101535.66;5043304;28;20092;-71
2023/08/09 09:52:54;;;;;;;9.23;6.93;;;;;;;23.35;87.46;101534.31;5047086;28;20033;-71
2023/08/09 09:55:25;;;;;;;7.65;6.18;;;;;;;23.36;87.43;101541.44;5048818;28;20064;-71
2023/08/09 09:57:54;;;;;;;8.70;6.10;;;;;;;23.26;86.06;101539.69;5043887;28;20039;-71
2023/08/09 10:00:20;;;;;;;7.35;5.20;;;;;;;23.42;83.79;101530.75;5045755;28;21060;-70
2023/08/09 10:02:48;;;;;;;7.38;5.80;;;;;;;23.53;84.86;101527.72;5042381;28;20037;-71
2023/08/09 10:05:18;;;;;;;10.50;5.75;;;;;;;23.58;82.33;101518.22;5049071;28;20102;-70
2023/08/09 10:07:45;;;;;;;8.55;6.43;;;;;;;23.70;82.13;101522.38;5061830;28;20072;-71
2023/08/09 10:10:12;;;;;;;8.88;6.15;;;;;;;23.12;82.79;101523.13;5046744;28;20048;-70
2023/08/09 10:12:43;;;;;;;9.80;6.35;;;;;;;23.18;83.51;101515.16;5053799;28;20079;-71
2023/08/09 10:15:14;;;;;;;7.50;4.90;;;;;;;22.98;81.60;101513.69;5055274;28;20072;-71
2023/08/09 10:17:41;;;;;;;;;;;;;;;23.53;80.28;101510.53;5047835;28;20041;-71
2023/08/09 10:20:10;;;;;;;4.63;3.70;;;;;;;23.81;78.73;101513.03;5049093;28;19916;-71
2023/08/09 10:22:37;;;;;;;11.60;4.45;;;;;;;23.60;77.10;101516.19;5052568;28;20115;-71
2023/08/09 10:25:02;;;;;;;6.90;3.92;;;;;;;23.71;79.37;101513.19;5054582;28;20080;-71
2023/08/09 10:27:51;;;;;;;9.18;3.88;;;;;;;23.41;77.02;101518.16;5054608;28;20044;-71
2023/08/09 10:30:19;;;;;;;5.43;3.78;;;;;;;23.53;76.32;101518.69;5050882;28;20045;-71
2023/08/09 10:32:49;;;;;;;5.35;3.72;;;;;;;23.40;78.07;101524.63;5055258;28;20048;-71
2023/08/09 10:35:17;;;;;;;5.13;3.65;;;;;;;23.75;77.09;101523.59;5053391;28;20049;-71
2023/08/09 10:37:43;;;;;;;7.43;3.92;;;;;;;23.62;77.58;101530.47;5047878;28;20069;-71
2023/08/09 10:40:18;;;;;;;6.38;3.90;;;;;;;23.55;78.69;101526.72;5050179;28;20036;-71
2023/08/09 10:42:47;;;;;;;10.77;4.40;;;;;;;23.45;80.74;101532.31;5048850;28;20110;-71
2023/08/09 10:45:14;;;;;;;7.13;4.65;;;;;;;23.00;80.94;101533.47;5054567;28;20044;-71
2023/08/09 10:47:41;;;;;;;6.68;4.28;;;;;;;22.65;82.00;101531.66;5053871;28;20037;-70
2023/08/09 10:50:18;;;;;;;3.90;3.53;;;;;;;22.48;82.62;101531.53;5048228;28;20027;-71
2023/08/09 10:52:50;;;;;;;6.53;4.35;;;;;;;22.38;80.47;101517.19;5057013;28;20053;-70
2023/08/09 10:55:19;;;;;;;6.05;4.13;;;;;;;22.53;82.63;101527.47;5066556;28;20037;-72
2023/08/09 10:57:50;;;;;;;7.32;4.25;;;;;;;22.77;80.74;101526.81;5056550;28;20029;-71
2023/08/09 11:00:16;;;;;;;4.80;4.40;;;;;;;22.97;83.47;101526.44;5057055;28;20033;-71
2023/08/09 11:02:50;;;;;;;10.43;4.65;;;;;;;22.75;82.74;101526.97;5050936;28;20021;-71
2023/08/09 11:05:20;;;;;;;9.23;4.68;;;;;;;22.88;84.02;101524.69;5054945;28;20041;-71